Time;durP1;ratioP1;P1;durP2;ratioP2;P2;SDS_P1;SDS_P2;PMS_P1;PMS_P2;Temp;Humidity;BMP_temperature;BMP_pressure;BME280_temperature;BME280_humidity;BME280_pressure;Samples;Min_cycle;Max_cycle;Signal;HPM_P1;HPM_P2
2021/06/05 00:01:33;;;;;;;;;13.00;12.67;;;;;-147.17;100.00;59696.56;5032831;28;52325;-46
2021/06/05 00:04:00;;;;;;;;;13.00;13.00;;;;;-147.17;100.00;59696.56;5032255;28;51200;-47
2021/06/05 00:06:26;;;;;;;;;12.00;11.75;;;;;-147.17;100.00;59696.56;5032612;28;50990;-46
2021/06/05 00:08:52;;;;;;;;;13.67;10.67;;;;;-147.17;100.00;59696.56;5029824;28;51287;-47
2021/06/05 00:11:21;;;;;;;;;11.75;11.00;;;;;-147.17;100.00;59696.56;5026756;28;51185;-49
2021/06/05 00:13:49;;;;;;;;;14.00;13.00;;;;;-147.17;100.00;59696.56;5031801;28;50903;-49
2021/06/05 00:16:18;;;;;;;;;12.00;12.00;;;;;-147.17;100.00;59696.56;5032292;28;51100;-49
2021/06/05 00:18:45;;;;;;;;;10.00;10.00;;;;;-147.17;100.00;59696.56;5047790;28;51013;-47
2021/06/05 00:21:11;;;;;;;;;11.33;11.00;;;;;-147.17;100.00;59696.56;5032432;28;52992;-48
2021/06/05 00:23:37;;;;;;;;;12.25;12.00;;;;;-147.17;100.00;59696.56;5031457;28;51010;-47
2021/06/05 00:26:04;;;;;;;;;15.50;13.25;;;;;-147.17;100.00;59696.56;5029958;28;51156;-50
2021/06/05 00:28:29;;;;;;;;;13.75;13.25;;;;;-147.17;100.00;59696.56;5031253;28;51092;-50
2021/06/05 00:30:55;;;;;;;;;16.00;16.00;;;;;-147.17;100.00;59696.56;5030214;28;53069;-51
2021/06/05 00:33:21;;;;;;;;;15.00;14.00;;;;;-147.17;100.00;59696.56;5028845;28;51249;-49
2021/06/05 00:35:47;;;;;;;;;14.00;14.00;;;;;-147.17;100.00;59696.56;5032617;28;51394;-49
2021/06/05 00:38:13;;;;;;;;;14.33;13.67;;;;;-147.17;100.00;59696.56;5031009;28;51307;-47
2021/06/05 00:40:44;;;;;;;;;13.00;13.00;;;;;-147.17;100.00;59696.56;5031544;28;52989;-50
2021/06/05 00:43:12;;;;;;;;;14.25;13.50;;;;;-147.17;100.00;59696.56;5031093;28;51142;-50
2021/06/05 00:45:41;;;;;;;;;12.50;12.00;;;;;-147.17;100.00;59696.56;5031278;28;51143;-49
2021/06/05 00:48:07;;;;;;;;;15.75;15.25;;;;;-147.17;100.00;59696.56;5031495;28;51183;-50
2021/06/05 00:50:33;;;;;;;;;14.75;14.50;;;;;-147.17;100.00;59696.56;5031316;28;51630;-46
2021/06/05 00:52:59;;;;;;;;;15.50;15.50;;;;;-147.17;100.00;59696.56;5026675;28;51128;-47
2021/06/05 00:55:28;;;;;;;;;17.25;14.75;;;;;-147.17;100.00;59696.56;5028504;28;51244;-47
2021/06/05 00:57:54;;;;;;;;;13.50;13.50;;;;;-147.17;100.00;59696.56;5031656;28;51146;-51
2021/06/05 01:00:26;;;;;;;;;18.25;18.00;;;;;-147.17;100.00;59696.56;5031937;28;52236;-50
2021/06/05 01:02:52;;;;;;;;;18.75;17.25;;;;;-147.17;100.00;59696.56;5030737;28;51273;-51
2021/06/05 01:05:18;;;;;;;;;19.00;18.75;;;;;-147.17;100.00;59696.56;5030144;28;51314;-49
2021/06/05 01:07:47;;;;;;;;;17.00;16.00;;;;;-147.17;100.00;59696.56;5031947;28;51320;-50
2021/06/05 01:10:25;;;;;;;;;19.00;17.00;;;;;-147.17;100.00;59696.56;5030904;28;51978;-47
2021/06/05 01:13:08;;;;;;;;;18.00;16.75;;;;;-147.17;100.00;59696.56;5030158;28;51088;-46
2021/06/05 01:15:40;;;;;;;;;17.25;17.00;;;;;-147.17;100.00;59696.56;5030277;28;51317;-48
2021/06/05 01:18:11;;;;;;;;;17.50;17.00;;;;;-147.17;100.00;59696.56;5031492;28;50946;-47
2021/06/05 01:20:42;;;;;;;;;12.75;12.75;;;;;-147.17;100.00;59696.56;5029793;28;53030;-47
2021/06/05 01:23:26;;;;;;;;;18.25;18.00;;;;;-147.17;100.00;59696.56;5030514;28;51004;-47
2021/06/05 01:25:51;;;;;;;;;16.00;15.00;;;;;-147.17;100.00;59696.56;5031224;28;51170;-45
2021/06/05 01:28:29;;;;;;;;;20.50;19.00;;;;;-147.17;100.00;59696.56;5031329;28;51199;-47
2021/06/05 01:30:58;;;;;;;;;19.50;18.75;;;;;-147.17;100.00;59696.56;5027037;28;52902;-48
2021/06/05 01:33:27;;;;;;;;;17.25;16.25;;;;;-147.17;100.00;59696.56;5031568;28;51116;-49
2021/06/05 01:35:54;;;;;;;;;18.75;17.00;;;;;-147.17;100.00;59696.56;5030093;28;51172;-50
2021/06/05 01:38:22;;;;;;;;;16.00;15.75;;;;;-147.17;100.00;59696.56;5030657;28;50906;-50
2021/06/05 01:40:49;;;;;;;;;21.00;19.25;;;;;-147.17;100.00;59696.56;5030273;28;52668;-46
2021/06/05 01:43:18;;;;;;;;;19.25;18.50;;;;;-147.17;100.00;59696.56;5031720;28;51141;-47
2021/06/05 01:45:46;;;;;;;;;20.50;18.50;;;;;-147.17;100.00;59696.56;5034106;28;50924;-47
2021/06/05 01:48:13;;;;;;;;;23.50;21.50;;;;;-147.17;100.00;59696.56;5034465;28;51261;-47
2021/06/05 01:50:41;;;;;;;;;19.75;18.75;;;;;-147.17;100.00;59696.56;5036089;28;51149;-49
2021/06/05 01:53:12;;;;;;;;;19.50;19.00;;;;;-147.17;100.00;59696.56;5039412;28;51307;-47
2021/06/05 01:55:43;;;;;;;;;22.00;20.50;;;;;-147.17;100.00;59696.56;5033839;28;51317;-46
2021/06/05 01:58:15;;;;;;;;;18.25;16.00;;;;;-147.17;100.00;59696.56;5033543;28;50942;-47
2021/06/05 02:00:51;;;;;;;;;22.75;21.50;;;;;-147.17;100.00;59696.56;5033379;28;52743;-46
2021/06/05 02:03:17;;;;;;;;;20.00;19.25;;;;;-147.17;100.00;59696.56;5031654;28;51128;-45
2021/06/05 02:05:43;;;;;;;;;18.75;18.00;;;;;-147.17;100.00;59696.56;5034846;28;51200;-45
2021/06/05 02:08:12;;;;;;;;;16.25;15.75;;;;;-147.17;100.00;59696.56;5033835;28;51345;-50
2021/06/05 02:10:38;;;;;;;;;17.00;16.33;;;;;-147.17;100.00;59696.56;5032287;28;51254;-50
2021/06/05 02:13:06;;;;;;;;;15.67;13.00;;;;;-147.17;100.00;59696.56;5034607;28;51016;-48
2021/06/05 02:15:36;;;;;;;;;18.00;17.00;;;;;-147.17;100.00;59696.56;5033723;28;51087;-50
2021/06/05 02:18:05;;;;;;;;;14.33;14.00;;;;;-147.17;100.00;59696.56;5032135;28;51266;-48
2021/06/05 02:20:40;;;;;;;;;18.00;17.67;;;;;-147.17;100.00;59696.56;5032557;28;51077;-50
2021/06/05 02:23:11;;;;;;;;;18.75;17.75;;;;;-147.17;100.00;59696.56;5029772;28;51323;-51
2021/06/05 02:25:37;;;;;;;;;17.00;17.00;;;;;-147.17;100.00;59696.56;5034474;28;51014;-51
2021/06/05 02:28:04;;;;;;;;;19.25;17.50;;;;;-147.17;100.00;59696.56;5033173;28;51456;-49
2021/06/05 02:30:30;;;;;;;;;20.00;18.75;;;;;-147.17;100.00;59696.56;5033051;28;51956;-50
2021/06/05 02:32:57;;;;;;;;;19.00;19.00;;;;;-147.17;100.00;59696.56;5034248;28;50844;-49
2021/06/05 02:35:39;;;;;;;;;20.75;19.25;;;;;-147.17;100.00;59696.56;5013901;28;51364;-48
2021/06/05 02:38:05;;;;;;;;;22.50;19.75;;;;;-147.17;100.00;59696.56;5032135;28;50965;-47
2021/06/05 02:40:34;;;;;;;;;20.50;19.50;;;;;-147.17;100.00;59696.56;5032031;28;52694;-49
2021/06/05 02:43:05;;;;;;;;;20.75;20.50;;;;;-147.17;100.00;59696.56;5034360;28;50892;-46
2021/06/05 02:45:55;;;;;;;;;20.00;19.50;;;;;-147.17;100.00;59696.56;5033599;28;51140;-47
2021/06/05 02:48:21;;;;;;;;;21.00;20.50;;;;;-147.17;100.00;59696.56;5033497;28;51183;-47
2021/06/05 02:50:53;;;;;;;;;22.75;21.25;;;;;-147.17;100.00;59696.56;5029912;28;51677;-49
2021/06/05 02:53:19;;;;;;;;;23.50;21.50;;;;;-147.17;100.00;59696.56;5031571;28;51834;-46
2021/06/05 02:55:46;;;;;;;;;19.50;19.00;;;;;-147.17;100.00;59696.56;5033934;28;50925;-49
2021/06/05 02:58:13;;;;;;;;;21.00;19.25;;;;;-147.17;100.00;59696.56;5034189;28;51111;-50
2021/06/05 03:00:42;;;;;;;;;20.75;20.25;;;;;-147.17;100.00;59696.56;5030883;28;52985;-50
2021/06/05 03:03:10;;;;;;;;;22.00;22.00;;;;;-147.17;100.00;59696.56;5032671;28;51085;-48
2021/06/05 03:05:36;;;;;;;;;22.00;21.75;;;;;-147.17;100.00;59696.56;5032437;28;51087;-50
2021/06/05 03:08:04;;;;;;;;;21.50;20.50;;;;;-147.17;100.00;59696.56;5033633;28;51093;-49
2021/06/05 03:10:32;;;;;;;;;26.50;24.50;;;;;-147.17;100.00;59696.56;5030560;28;52980;-47
2021/06/05 03:12:58;;;;;;;;;23.25;23.00;;;;;-147.17;100.00;59696.56;5033792;28;51008;-48
2021/06/05 03:15:25;;;;;;;;;23.50;22.25;;;;;-147.17;100.00;59696.56;5033014;28;51107;-49
2021/06/05 03:17:51;;;;;;;;;22.50;22.50;;;;;-147.17;100.00;59696.56;5033966;28;50939;-46
2021/06/05 03:20:21;;;;;;;;;23.50;23.00;;;;;-147.17;100.00;59696.56;5030523;28;51958;-48
2021/06/05 03:22:47;;;;;;;;;24.75;23.50;;;;;-147.17;100.00;59696.56;5029443;28;51367;-48
2021/06/05 03:25:14;;;;;;;;;24.25;23.50;;;;;-147.17;100.00;59696.56;5032981;28;51182;-49
2021/06/05 03:27:39;;;;;;;;;23.75;22.00;;;;;-147.17;100.00;59696.56;5032348;28;51144;-48
2021/06/05 03:30:07;;;;;;;;;24.00;23.50;;;;;-147.17;100.00;59696.56;5032493;28;50944;-47
2021/06/05 03:32:33;;;;;;;;;24.25;21.75;;;;;-147.17;100.00;59696.56;5030014;28;51075;-48
2021/06/05 03:34:58;;;;;;;;;20.75;19.75;;;;;-147.17;100.00;59696.56;5032514;28;50977;-47
2021/06/05 03:37:24;;;;;;;;;20.00;19.75;;;;;-147.17;100.00;59696.56;5033577;28;50956;-46
2021/06/05 03:39:49;;;;;;;;;22.00;21.00;;;;;-147.17;100.00;59696.56;5033348;28;51158;-48
2021/06/05 03:42:17;;;;;;;;;20.00;19.75;;;;;-147.17;100.00;59696.56;5028577;28;51410;-46
2021/06/05 03:44:42;;;;;;;;;17.25;17.00;;;;;-147.17;100.00;59696.56;5031512;28;51472;-50
2021/06/05 03:47:08;;;;;;;;;18.50;18.00;;;;;-147.17;100.00;59696.56;5032630;28;51234;-46
2021/06/05 03:49:34;;;;;;;;;19.50;18.00;;;;;-147.17;100.00;59696.56;5032052;28;51241;-49
2021/06/05 03:52:00;;;;;;;;;19.75;18.75;;;;;-147.17;100.00;59696.56;5032011;28;51511;-48
2021/06/05 03:54:25;;;;;;;;;19.50;19.25;;;;;-147.17;100.00;59696.56;5032496;28;51049;-49
2021/06/05 03:56:51;;;;;;;;;18.00;17.50;;;;;-147.17;100.00;59696.56;5033201;28;50887;-49
2021/06/05 03:59:17;;;;;;;;;19.00;18.75;;;;;-147.17;100.00;59696.56;5031765;28;51757;-45
2021/06/05 04:01:42;;;;;;;;;18.25;18.25;;;;;-147.17;100.00;59696.56;5031947;28;50962;-47
2021/06/05 04:04:07;;;;;;;;;21.00;18.50;;;;;-147.17;100.00;59696.56;5029467;28;51225;-49
2021/06/05 04:06:34;;;;;;;;;23.75;19.50;;;;;-147.17;100.00;59696.56;5032359;28;51133;-49
2021/06/05 04:08:59;;;;;;;;;17.25;16.25;;;;;-147.17;100.00;59696.56;5031995;28;51880;-46
2021/06/05 04:11:29;;;;;;;;;18.50;18.25;;;;;-147.17;100.00;59696.56;5028259;28;51189;-49
2021/06/05 04:13:56;;;;;;;;;20.75;19.00;;;;;-147.17;100.00;59696.56;5030703;28;51144;-47
2021/06/05 04:16:23;;;;;;;;;20.75;17.25;;;;;-147.17;100.00;59696.56;5033102;28;51102;-49
2021/06/05 04:18:50;;;;;;;;;18.25;18.25;;;;;-147.17;100.00;59696.56;5031495;28;53018;-46
2021/06/05 04:21:19;;;;;;;;;16.00;15.75;;;;;-147.17;100.00;59696.56;5031062;28;50931;-49
2021/06/05 04:23:45;;;;;;;;;18.50;17.50;;;;;-147.17;100.00;59696.56;5029090;28;51170;-47
2021/06/05 04:26:13;;;;;;;;;20.00;19.00;;;;;-147.17;100.00;59696.56;5031997;28;51330;-47
2021/06/05 04:28:39;;;;;;;;;17.75;17.50;;;;;-147.17;100.00;59696.56;5031902;28;51794;-45
2021/06/05 04:31:06;;;;;;;;;20.25;19.00;;;;;-147.17;100.00;59696.56;5026548;28;50958;-49
2021/06/05 04:33:32;;;;;;;;;18.75;18.00;;;;;-147.17;100.00;59696.56;5031750;28;51005;-50
2021/06/05 04:36:00;;;;;;;;;18.75;18.50;;;;;-147.17;100.00;59696.56;5032015;28;50974;-47
2021/06/05 04:38:26;;;;;;;;;15.67;15.00;;;;;-147.17;100.00;59696.56;5031996;28;52789;-49
2021/06/05 04:40:51;;;;;;;;;16.00;15.00;;;;;-147.17;100.00;59696.56;5031517;28;51076;-48
2021/06/05 04:43:19;;;;;;;;;17.00;16.75;;;;;-147.17;100.00;59696.56;5030117;28;51200;-50
2021/06/05 04:45:45;;;;;;;;;14.50;14.50;;;;;-147.17;100.00;59696.56;5031113;28;51163;-49
2021/06/05 04:48:11;;;;;;;;;14.25;14.25;;;;;-147.17;100.00;59696.56;5031138;28;51873;-51
2021/06/05 04:50:39;;;;;;;;;16.75;16.25;;;;;-147.17;100.00;59696.56;5025571;28;51182;-48
2021/06/05 04:53:05;;;;;;;;;16.75;15.75;;;;;-147.17;100.00;59696.56;5063374;28;51147;-50
2021/06/05 04:55:30;;;;;;;;;19.00;17.50;;;;;-147.17;100.00;59696.56;5032405;28;51258;-49
2021/06/05 04:57:57;;;;;;;;;17.00;15.75;;;;;-147.17;100.00;59696.56;5032079;28;51906;-49
2021/06/05 05:00:30;;;;;;;;;20.00;18.75;;;;;-147.17;100.00;59696.56;5030447;28;51364;-50
2021/06/05 05:02:55;;;;;;;;;19.50;18.50;;;;;-147.17;100.00;59696.56;5045685;28;51093;-48
2021/06/05 05:05:21;;;;;;;;;17.00;16.00;;;;;-147.17;100.00;59696.56;5030945;28;51326;-50
2021/06/05 05:07:48;;;;;;;;;17.50;17.50;;;;;-147.17;100.00;59696.56;5029782;28;50977;-50
2021/06/05 05:10:16;;;;;;;;;16.25;16.25;;;;;-147.17;100.00;59696.56;5028736;28;51159;-54
2021/06/05 05:12:42;;;;;;;;;17.75;16.50;;;;;-147.17;100.00;59696.56;5031416;28;51278;-47
2021/06/05 05:15:08;;;;;;;;;16.50;15.75;;;;;-147.17;100.00;59696.56;5031952;28;50879;-49
2021/06/05 05:17:34;;;;;;;;;16.00;15.50;;;;;-147.17;100.00;59696.56;5031102;28;51898;-46
2021/06/05 05:20:00;;;;;;;;;16.00;15.75;;;;;-147.17;100.00;59696.56;5028497;28;51110;-46
2021/06/05 05:22:26;;;;;;;;;17.75;17.00;;;;;-147.17;100.00;59696.56;5034546;28;51039;-46
2021/06/05 05:24:51;;;;;;;;;18.25;18.25;;;;;-147.17;100.00;59696.56;5035323;28;51391;-47
2021/06/05 05:27:16;;;;;;;;;21.00;18.25;;;;;-147.17;100.00;59696.56;5034321;28;51371;-46
2021/06/05 05:29:42;;;;;;;;;18.75;18.00;;;;;-147.17;100.00;59696.56;5033200;28;53439;-46
2021/06/05 05:32:07;;;;;;;;;17.75;17.00;;;;;-147.17;100.00;59696.56;5035520;28;52002;-47
2021/06/05 05:34:33;;;;;;;;;23.00;21.50;;;;;-147.17;100.00;59696.56;5034195;28;51163;-47
2021/06/05 05:36:58;;;;;;;;;18.00;17.75;;;;;-147.17;100.00;59696.56;5034846;28;51199;-46
2021/06/05 05:39:24;;;;;;;;;17.00;17.00;;;;;-147.17;100.00;59696.56;5033394;28;51209;-47
2021/06/05 05:41:50;;;;;;;;;16.75;15.50;;;;;-147.17;100.00;59696.56;5035248;28;51213;-50
2021/06/05 05:44:17;;;;;;;;;17.25;16.00;;;;;-147.17;100.00;59696.56;5035329;28;52186;-51
2021/06/05 05:46:43;;;;;;;;;16.00;15.00;;;;;-147.17;100.00;59696.56;5032605;28;51870;-47
2021/06/05 05:49:08;;;;;;;;;18.25;16.00;;;;;-147.17;100.00;59696.56;5028289;28;51434;-46
2021/06/05 05:51:34;;;;;;;;;12.00;12.00;;;;;-147.17;100.00;59696.56;5035004;28;51288;-47
2021/06/05 05:54:00;;;;;;;;;17.00;16.00;;;;;-147.17;100.00;59696.56;5034698;28;50992;-47
2021/06/05 05:56:28;;;;;;;;;17.50;16.00;;;;;-147.17;100.00;59696.56;5034690;28;51939;-46
2021/06/05 05:58:55;;;;;;;;;15.25;15.00;;;;;-147.17;100.00;59696.56;5031848;28;51137;-48
2021/06/05 06:01:22;;;;;;;;;16.67;16.00;;;;;-147.17;100.00;59696.56;5034251;28;50892;-49
2021/06/05 06:03:49;;;;;;;;;16.50;16.50;;;;;-147.17;100.00;59696.56;5033288;28;51311;-49
2021/06/05 06:06:15;;;;;;;;;15.33;15.00;;;;;-147.17;100.00;59696.56;5034187;28;52738;-50
2021/06/05 06:08:42;;;;;;;;;14.25;14.25;;;;;-147.17;100.00;59696.56;5032922;28;51186;-48
2021/06/05 06:11:11;;;;;;;;;13.50;13.50;;;;;-147.17;100.00;59696.56;5032922;28;52970;-49
2021/06/05 06:13:38;;;;;;;;;18.75;17.50;;;;;-147.17;100.00;59696.56;5033156;28;51107;-47
2021/06/05 06:16:05;;;;;;;;;14.33;13.33;;;;;-147.17;100.00;59696.56;5034104;28;51928;-49
2021/06/05 06:18:30;;;;;;;;;14.75;14.00;;;;;-147.17;100.00;59696.56;5028149;28;51385;-50
2021/06/05 06:20:56;;;;;;;;;17.00;15.50;;;;;-147.17;100.00;59696.56;5032540;28;50973;-48
2021/06/05 06:23:25;;;;;;;;;13.25;13.25;;;;;-147.17;100.00;59696.56;5034430;28;51005;-50
2021/06/05 06:25:54;;;;;;;;;14.00;14.00;;;;;-147.17;100.00;59696.56;5033992;28;53086;-47
2021/06/05 06:28:23;;;;;;;;;14.50;14.50;;;;;-147.17;100.00;59696.56;5031332;28;51180;-47
2021/06/05 06:30:49;;;;;;;;;15.00;15.00;;;;;-147.17;100.00;59696.56;5032380;28;51092;-48
2021/06/05 06:33:14;;;;;;;;;17.50;17.25;;;;;-147.17;100.00;59696.56;5031885;28;53340;-49
2021/06/05 06:35:41;;;;;;;;;19.00;18.25;;;;;-147.17;100.00;59696.56;5033612;28;52286;-50
2021/06/05 06:38:20;;;;;;;;;14.67;14.00;;;;;-147.17;100.00;59696.56;5034561;28;53961;-49
2021/06/05 06:40:46;;;;;;;;;16.00;16.00;;;;;-147.17;100.00;59696.56;5037730;28;51195;-50
2021/06/05 06:43:16;;;;;;;;;14.00;13.00;;;;;-147.17;100.00;59696.56;5032488;28;51165;-51
2021/06/05 06:45:42;;;;;;;;;16.75;16.25;;;;;-147.17;100.00;59696.56;5031784;28;51831;-48
2021/06/05 06:48:07;;;;;;;;;15.67;15.67;;;;;-147.17;100.00;59696.56;5032209;28;51123;-49
2021/06/05 06:50:33;;;;;;;;;17.50;17.50;;;;;-147.17;100.00;59696.56;5026121;28;53138;-51
2021/06/05 06:52:58;;;;;;;;;12.00;12.00;;;;;-147.17;100.00;59696.56;5033838;28;51074;-49
2021/06/05 06:55:24;;;;;;;;;13.00;12.75;;;;;-147.17;100.00;59696.56;5028679;28;52489;-49
2021/06/05 06:57:51;;;;;;;;;16.00;14.67;;;;;-147.17;100.00;59696.56;5031142;28;51139;-49
2021/06/05 07:00:23;;;;;;;;;15.33;14.00;;;;;-147.17;100.00;59696.56;5029339;28;51223;-51
2021/06/05 07:02:48;;;;;;;;;12.00;11.00;;;;;-147.17;100.00;59696.56;5026341;28;52827;-50
2021/06/05 07:05:14;;;;;;;;;13.00;13.00;;;;;-147.17;100.00;59696.56;5026547;28;51230;-50
2021/06/05 07:07:39;;;;;;;;;11.67;11.33;;;;;-147.17;100.00;59696.56;5024334;28;50966;-49
2021/06/05 07:10:06;;;;;;;;;15.67;15.00;;;;;-147.17;100.00;59696.56;5043633;28;51305;-50
2021/06/05 07:12:32;;;;;;;;;11.67;10.67;;;;;-147.17;100.00;59696.56;5019456;28;52619;-47
2021/06/05 07:14:58;;;;;;;;;12.00;12.00;;;;;-147.17;100.00;59696.56;5058321;28;52881;-49
2021/06/05 07:17:23;;;;;;;;;13.00;11.67;;;;;-147.17;100.00;59696.56;5027178;28;51198;-44
2021/06/05 07:19:48;;;;;;;;;12.67;12.33;;;;;-147.17;100.00;59696.56;5027573;28;51420;-46
2021/06/05 07:22:14;;;;;;;;;12.00;12.00;;;;;-147.17;100.00;59696.56;5029358;28;51291;-46
2021/06/05 07:24:39;;;;;;;;;11.67;11.00;;;;;-147.17;100.00;59696.56;5029823;28;52220;-45
2021/06/05 07:27:05;;;;;;;;;11.33;11.33;;;;;-147.17;100.00;59696.56;5033233;28;51023;-45
2021/06/05 07:29:30;;;;;;;;;13.00;13.00;;;;;-147.17;100.00;59696.56;5019314;28;51353;-47
2021/06/05 07:31:56;;;;;;;;;12.67;12.67;;;;;-147.17;100.00;59696.56;5032872;28;51351;-45
2021/06/05 07:34:24;;;;;;;;;15.00;15.00;;;;;-147.17;100.00;59696.56;5028892;28;52593;-48
2021/06/05 07:36:55;;;;;;;;;15.00;13.00;;;;;-147.17;100.00;59696.56;5024646;28;51695;-45
2021/06/05 07:39:25;;;;;;;;;16.00;15.33;;;;;-147.17;100.00;59696.56;5031829;28;50994;-48
2021/06/05 07:41:52;;;;;;;;;14.67;14.67;;;;;-147.17;100.00;59696.56;5031659;28;51321;-50
2021/06/05 07:44:18;;;;;;;;;14.33;13.33;;;;;-147.17;100.00;59696.56;5031387;28;52936;-48
2021/06/05 07:46:47;;;;;;;;;13.00;13.00;;;;;-147.17;100.00;59696.56;5029487;28;51216;-47
2021/06/05 07:49:13;;;;;;;;;11.67;11.67;;;;;-147.17;100.00;59696.56;5024919;28;51345;-47
2021/06/05 07:51:39;;;;;;;;;15.00;14.33;;;;;-147.17;100.00;59696.56;5026999;28;51708;-47
2021/06/05 07:54:05;;;;;;;;;12.67;11.67;;;;;-147.17;100.00;59696.56;5030467;28;51838;-47
2021/06/05 07:56:31;;;;;;;;;13.67;13.00;;;;;-147.17;100.00;59696.56;5030065;28;51239;-46
2021/06/05 07:58:56;;;;;;;;;9.67;9.67;;;;;-147.17;100.00;59696.56;5030408;28;51236;-45
2021/06/05 08:01:22;;;;;;;;;14.00;13.67;;;;;-147.17;100.00;59696.56;5032666;28;51286;-51
2021/06/05 08:03:49;;;;;;;;;11.00;11.00;;;;;-147.17;100.00;59696.56;5030832;28;52791;-47
2021/06/05 08:06:15;;;;;;;;;11.00;10.00;;;;;-147.17;100.00;59696.56;5027910;28;51113;-49
2021/06/05 08:08:41;;;;;;;;;10.67;10.67;;;;;-147.17;100.00;59696.56;5028276;28;51173;-51
2021/06/05 08:11:06;;;;;;;;;11.67;11.00;;;;;-147.17;100.00;59696.56;5031547;28;51782;-50
2021/06/05 08:13:32;;;;;;;;;11.00;10.67;;;;;-147.17;100.00;59696.56;5027392;28;51997;-48
2021/06/05 08:15:58;;;;;;;;;13.00;11.00;;;;;-147.17;100.00;59696.56;5031281;28;51052;-49
2021/06/05 08:18:23;;;;;;;;;11.33;11.33;;;;;-147.17;100.00;59696.56;5030739;28;51017;-48
2021/06/05 08:20:58;;;;;;;;;12.00;12.00;;;;;-147.17;100.00;59696.56;5031697;28;50922;-46
2021/06/05 08:23:26;;;;;;;;;12.33;12.33;;;;;-147.17;100.00;59696.56;5034031;28;51911;-47
2021/06/05 08:25:52;;;;;;;;;9.33;8.67;;;;;-147.17;100.00;59696.56;5031161;28;51087;-46
2021/06/05 08:28:22;;;;;;;;;12.00;12.00;;;;;-147.17;100.00;59696.56;5031176;28;51147;-47
2021/06/05 08:30:49;;;;;;;;;13.67;11.67;;;;;-147.17;100.00;59696.56;5025887;28;51296;-47
2021/06/05 08:33:15;;;;;;;;;14.67;14.00;;;;;-147.17;100.00;59696.56;5031694;28;52996;-45
2021/06/05 08:35:41;;;;;;;;;11.33;11.33;;;;;-147.17;100.00;59696.56;5038414;28;51297;-47
2021/06/05 08:38:08;;;;;;;;;12.67;12.00;;;;;-147.17;100.00;59696.56;5029658;28;51297;-46
2021/06/05 08:40:44;;;;;;;;;13.33;13.33;;;;;-147.17;100.00;59696.56;5031539;28;51309;-47
2021/06/05 08:43:12;;;;;;;;;13.33;12.33;;;;;-147.17;100.00;59696.56;5029676;28;51180;-48
2021/06/05 08:45:39;;;;;;;;;12.00;11.00;;;;;-147.17;100.00;59696.56;5030242;28;51199;-48
2021/06/05 08:48:14;;;;;;;;;10.33;10.33;;;;;-147.17;100.00;59696.56;5029000;28;51109;-48
2021/06/05 08:50:40;;;;;;;;;11.67;11.67;;;;;-147.17;100.00;59696.56;5031355;28;51025;-47
2021/06/05 08:53:25;;;;;;;;;12.33;11.67;;;;;-147.17;100.00;59696.56;5030898;28;51047;-45
2021/06/05 08:55:59;;;;;;;;;11.33;11.33;;;;;-147.17;100.00;59696.56;5017344;28;50872;-49
2021/06/05 08:58:33;;;;;;;;;10.67;10.67;;;;;-147.17;100.00;59696.56;5034821;28;51143;-46
2021/06/05 09:01:13;;;;;;;;;11.00;11.00;;;;;-147.17;100.00;59696.56;5032571;28;51287;-47
2021/06/05 09:03:39;;;;;;;;;11.67;11.67;;;;;-147.17;100.00;59696.56;5033383;28;50957;-50
2021/06/05 09:06:24;;;;;;;;;10.00;9.00;;;;;-147.17;100.00;59696.56;5032390;28;51157;-50
2021/06/05 09:08:50;;;;;;;;;10.33;10.00;;;;;-147.17;100.00;59696.56;5032445;28;51166;-48
2021/06/05 09:11:17;;;;;;;;;10.00;10.00;;;;;-147.17;100.00;59696.56;5034689;28;51072;-49
2021/06/05 09:13:43;;;;;;;;;10.33;10.00;;;;;-147.17;100.00;59696.56;5031651;28;52098;-47
2021/06/05 09:16:23;;;;;;;;;12.00;12.00;;;;;-147.17;100.00;59696.56;5031849;28;51144;-49
2021/06/05 09:18:53;;;;;;;;;11.00;11.00;;;;;-147.17;100.00;59696.56;5034254;28;51128;-46
2021/06/05 09:21:31;;;;;;;;;8.33;8.33;;;;;-147.17;100.00;59696.56;5032412;28;51202;-47
2021/06/05 09:24:14;;;;;;;;;11.00;9.67;;;;;-147.17;100.00;59696.56;5033563;28;51063;-45
2021/06/05 09:26:43;;;;;;;;;10.67;10.33;;;;;-147.17;100.00;59696.56;5033203;28;51007;-45
2021/06/05 09:29:20;;;;;;;;;9.33;9.00;;;;;-147.17;100.00;59696.56;5034445;28;51125;-47
2021/06/05 09:32:18;;;;;;;;;9.00;8.00;;;;;-147.17;100.00;59696.56;5033678;28;51140;-49
2021/06/05 09:35:06;;;;;;;;;8.67;8.67;;;;;-147.17;100.00;59696.56;5015906;28;51232;-46
2021/06/05 09:37:39;;;;;;;;;7.00;7.00;;;;;-147.17;100.00;59696.56;5028558;28;51693;-48
2021/06/05 09:40:07;;;;;;;;;10.00;10.00;;;;;-147.17;100.00;59696.56;5032203;28;51033;-46
2021/06/05 09:42:41;;;;;;;;;10.67;10.67;;;;;-147.17;100.00;59696.56;5032674;28;51148;-46
2021/06/05 09:45:17;;;;;;;;;11.00;10.00;;;;;-147.17;100.00;59696.56;5032890;28;51908;-45
2021/06/05 09:47:43;;;;;;;;;11.33;10.67;;;;;-147.17;100.00;59696.56;5033055;28;51025;-46
2021/06/05 09:50:27;;;;;;;;;9.33;9.33;;;;;-147.17;100.00;59696.56;5031504;28;51155;-46
2021/06/05 09:52:53;;;;;;;;;12.00;11.33;;;;;-147.17;100.00;59696.56;5032371;28;51187;-47
2021/06/05 09:55:18;;;;;;;;;11.00;10.67;;;;;-147.17;100.00;59696.56;5030764;28;51925;-48
2021/06/05 09:57:49;;;;;;;;;10.00;9.33;;;;;-147.17;100.00;59696.56;5024482;28;51107;-46
2021/06/05 10:00:24;;;;;;;;;12.00;11.00;;;;;-147.17;100.00;59696.56;5032111;28;51092;-46
2021/06/05 10:02:53;;;;;;;;;12.33;12.00;;;;;-147.17;100.00;59696.56;5022590;28;51209;-48
2021/06/05 10:05:24;;;;;;;;;12.67;12.00;;;;;-147.17;100.00;59696.56;5031313;28;51055;-51
2021/06/05 10:07:51;;;;;;;;;10.67;10.00;;;;;-147.17;100.00;59696.56;5029782;28;51224;-48
2021/06/05 10:10:28;;;;;;;;;14.00;13.00;;;;;-147.17;100.00;59696.56;5033249;28;51259;-51
2021/06/05 10:12:55;;;;;;;;;12.33;12.33;;;;;-147.17;100.00;59696.56;5037488;28;51132;-49
2021/06/05 10:15:33;;;;;;;;;13.67;13.67;;;;;-147.17;100.00;59696.56;5031819;28;51072;-49
2021/06/05 10:18:02;;;;;;;;;12.67;12.00;;;;;-147.17;100.00;59696.56;5032852;28;51091;-47
2021/06/05 10:20:33;;;;;;;;;12.00;11.33;;;;;-147.17;100.00;59696.56;5032030;28;51101;-52
2021/06/05 10:22:59;;;;;;;;;11.67;11.00;;;;;-147.17;100.00;59696.56;5032657;28;50911;-49
2021/06/05 10:25:27;;;;;;;;;11.00;11.00;;;;;-147.17;100.00;59696.56;5031315;28;51664;-51
2021/06/05 10:27:53;;;;;;;;;12.00;12.00;;;;;-147.17;100.00;59696.56;5032712;28;51057;-49
2021/06/05 10:30:38;;;;;;;;;10.33;10.33;;;;;-147.17;100.00;59696.56;5030993;28;51303;-49
2021/06/05 10:33:10;;;;;;;;;13.00;12.00;;;;;-147.17;100.00;59696.56;5024808;28;51018;-49
2021/06/05 10:35:39;;;;;;;;;13.00;11.33;;;;;-147.17;100.00;59696.56;5031819;28;51791;-50
2021/06/05 10:38:12;;;;;;;;;11.00;11.00;;;;;-147.17;100.00;59696.56;5032386;28;51644;-48
2021/06/05 10:40:38;;;;;;;;;12.33;12.33;;;;;-147.17;100.00;59696.56;5032918;28;51054;-52
2021/06/05 10:43:09;;;;;;;;;9.00;9.00;;;;;-147.17;100.00;59696.56;5027972;28;51111;-52
2021/06/05 10:45:44;;;;;;;;;11.33;11.00;;;;;-147.17;100.00;59696.56;5044982;28;51805;-49
2021/06/05 10:48:32;;;;;;;;;12.67;12.00;;;;;-147.17;100.00;59696.56;5030407;28;51258;-48
2021/06/05 10:51:08;;;;;;;;;9.33;8.33;;;;;-147.17;100.00;59696.56;5032744;28;51148;-52
2021/06/05 10:53:52;;;;;;;;;9.00;8.67;;;;;-147.17;100.00;59696.56;5019264;28;51303;-54
2021/06/05 10:56:39;;;;;;;;;8.33;8.33;;;;;-147.17;100.00;59696.56;5032436;28;51803;-53
2021/06/05 10:59:26;;;;;;;;;11.00;10.33;;;;;-147.17;100.00;59696.56;5031078;28;51105;-53
2021/06/05 11:01:52;;;;;;;;;11.00;11.00;;;;;-147.17;100.00;59696.56;5032332;28;50949;-52